Terminal Aerodrome Forecast
Issued by NWS

Home | Current Version | Previous Version | Text Only | Print | Product List | Glossary On
Versions: 1 2 3 4 5 6 7 8 9 10 11 12 13 14 15 16 17
000
FTUS41 KCAR 301129
TAFPQI
TAF
KPQI 301129Z 3012/3112 VRB03KT P6SM SCT250
     FM302300 17007KT 3SM -SHRA SCT025 OVC060
     FM310200 17005KT 5SM BR SCT007 BKN015
     FM310600 18005KT 2SM BR BKN007
      AMD LTD TO CLD VIS AND WIND=

USA.gov is the U.S. government's official web portal to all federal, state and local government web resources and services.